createdAt,value
2017-06-13T00:00:20.625Z,13.91
2017-06-13T00:00:48.604Z,13.94
2017-06-13T00:01:17.000Z,13.88
2017-06-13T00:01:45.064Z,13.84
2017-06-13T00:02:13.224Z,13.84
2017-06-13T00:02:41.440Z,13.84
2017-06-13T00:03:09.685Z,13.76
2017-06-13T00:03:38.010Z,13.78
2017-06-13T00:04:06.179Z,13.73
2017-06-13T00:04:34.374Z,13.75
2017-06-13T00:05:02.678Z,13.72
2017-06-13T00:05:30.932Z,13.69
2017-06-13T00:05:59.159Z,13.66
2017-06-13T00:06:27.471Z,13.62
2017-06-13T00:06:55.606Z,13.51
2017-06-13T00:07:23.537Z,13.5
2017-06-13T00:07:51.688Z,13.47
2017-06-13T00:08:19.861Z,13.51
2017-06-13T00:08:48.121Z,13.39
2017-06-13T00:09:16.303Z,13.51
2017-06-13T00:09:44.533Z,13.44
2017-06-13T00:10:12.643Z,13.32
2017-06-13T00:10:40.806Z,13.35
2017-06-13T00:11:08.910Z,13.4
2017-06-13T00:11:37.166Z,13.45
2017-06-13T00:12:05.433Z,13.54
2017-06-13T00:12:33.657Z,13.42
2017-06-13T00:13:01.701Z,13.44
2017-06-13T00:13:29.987Z,13.44
2017-06-13T00:13:58.284Z,13.47
2017-06-13T00:14:26.488Z,13.44
2017-06-13T00:14:54.597Z,13.39
2017-06-13T00:15:22.714Z,13.42
2017-06-13T00:15:50.862Z,13.39
2017-06-13T00:16:19.009Z,13.44
2017-06-13T00:16:47.434Z,13.39
2017-06-13T00:17:15.590Z,13.36
2017-06-13T00:17:43.839Z,13.37
2017-06-13T00:18:12.061Z,13.36
2017-06-13T00:18:40.050Z,13.36
2017-06-13T00:19:08.191Z,13.32
2017-06-13T00:19:36.267Z,13.36
2017-06-13T00:20:04.543Z,13.21
2017-06-13T00:20:32.631Z,13.24
2017-06-13T00:21:00.865Z,13.21
2017-06-13T00:21:29.091Z,13.25
2017-06-13T00:21:57.445Z,13.25
2017-06-13T00:22:25.585Z,13.25
2017-06-13T00:22:53.901Z,13.31
2017-06-13T00:23:21.944Z,13.29
2017-06-13T00:23:50.167Z,13.27
2017-06-13T00:24:18.416Z,13.25
2017-06-13T00:24:46.634Z,13.29
2017-06-13T00:25:14.769Z,13.36
2017-06-13T00:25:42.946Z,13.28
2017-06-13T00:26:11.135Z,13.4
2017-06-13T00:26:39.368Z,13.37
2017-06-13T00:27:07.607Z,13.39
2017-06-13T00:27:35.864Z,13.45
2017-06-13T00:28:03.886Z,13.4
2017-06-13T00:28:31.928Z,13.47
2017-06-13T00:28:59.914Z,13.45
2017-06-13T00:29:27.998Z,13.42
2017-06-13T00:29:56.233Z,13.44
2017-06-13T00:30:24.402Z,13.44
2017-06-13T00:30:52.503Z,13.4
2017-06-13T00:31:20.628Z,13.39
2017-06-13T00:31:49.052Z,13.42
2017-06-13T00:32:17.216Z,13.32
2017-06-13T00:32:45.405Z,13.32
2017-06-13T00:33:13.708Z,13.32
2017-06-13T00:33:41.972Z,13.36
2017-06-13T00:34:10.233Z,13.32
2017-06-13T00:34:38.484Z,13.44
2017-06-13T00:35:06.753Z,13.39
2017-06-13T00:35:34.722Z,13.44
2017-06-13T00:36:03.019Z,13.4
2017-06-13T00:36:31.357Z,13.45
2017-06-13T00:36:59.701Z,13.44
2017-06-13T00:37:27.901Z,13.4
2017-06-13T00:37:56.069Z,13.4
2017-06-13T00:38:24.248Z,13.32
2017-06-13T00:38:52.504Z,13.39
2017-06-13T00:39:20.643Z,13.36
2017-06-13T00:39:48.878Z,13.37
2017-06-13T00:40:17.029Z,13.29
2017-06-13T00:40:45.325Z,13.29
2017-06-13T00:41:13.517Z,13.28
2017-06-13T00:41:41.769Z,13.25
2017-06-13T00:42:09.982Z,13.21
2017-06-13T00:42:38.217Z,13.25
2017-06-13T00:43:06.442Z,13.21
2017-06-13T00:43:34.623Z,13.28
2017-06-13T00:44:02.739Z,13.31
2017-06-13T00:44:30.977Z,13.17
2017-06-13T00:44:59.010Z,13.19
2017-06-13T00:45:27.175Z,13.21
2017-06-13T00:45:55.379Z,13.19
2017-06-13T00:46:23.511Z,13.25
2017-06-13T00:46:51.542Z,13.19
2017-06-13T00:47:19.810Z,13.21
2017-06-13T00:47:47.956Z,13.25
2017-06-13T00:48:16.092Z,13.28
2017-06-13T00:48:44.150Z,13.25
2017-06-13T00:49:12.265Z,13.28
2017-06-13T00:49:40.380Z,13.29
2017-06-13T00:50:08.583Z,13.32
2017-06-13T00:50:36.864Z,13.31
2017-06-13T00:51:04.903Z,13.39
2017-06-13T00:51:33.118Z,13.45
2017-06-13T00:52:01.556Z,13.37
2017-06-13T00:52:29.743Z,13.42
2017-06-13T00:52:57.977Z,13.55
2017-06-13T00:53:26.243Z,13.53
2017-06-13T00:53:54.382Z,13.45
2017-06-13T00:54:22.639Z,13.51
2017-06-13T00:54:50.703Z,13.53
2017-06-13T00:55:18.798Z,13.48
2017-06-13T00:55:47.056Z,13.53
2017-06-13T00:56:15.120Z,13.48
2017-06-13T00:56:43.345Z,13.48
2017-06-13T00:57:11.715Z,13.5
2017-06-13T00:57:39.779Z,13.51
2017-06-13T00:58:08.050Z,13.48
2017-06-13T00:58:36.306Z,13.5
2017-06-13T00:59:04.577Z,13.51
2017-06-13T00:59:32.769Z,13.54
2017-06-13T01:00:00.950Z,13.51
2017-06-13T01:00:29.193Z,13.48
2017-06-13T01:00:57.219Z,13.5
2017-06-13T01:01:25.479Z,13.54
2017-06-13T01:01:53.807Z,13.4
2017-06-13T01:02:22.335Z,13.57
2017-06-13T01:02:50.484Z,13.39
2017-06-13T01:03:18.649Z,13.45
2017-06-13T01:03:46.872Z,13.48
2017-06-13T01:04:15.024Z,13.45
2017-06-13T01:04:43.333Z,13.45
2017-06-13T01:05:11.659Z,13.47
2017-06-13T01:05:39.818Z,13.47
2017-06-13T01:06:07.864Z,13.45
2017-06-13T01:06:36.051Z,13.47
2017-06-13T01:07:04.290Z,13.42
2017-06-13T01:07:32.590Z,13.44
2017-06-13T01:08:00.729Z,13.51
2017-06-13T01:08:28.916Z,13.47
2017-06-13T01:08:57.180Z,13.48
2017-06-13T01:09:25.488Z,13.36
2017-06-13T01:09:53.533Z,13.39
2017-06-13T01:10:21.776Z,13.47
2017-06-13T01:10:49.820Z,13.51
2017-06-13T01:11:17.982Z,13.42
2017-06-13T01:11:46.234Z,13.37
2017-06-13T01:12:14.484Z,13.51
2017-06-13T01:12:42.842Z,13.44
2017-06-13T01:13:10.854Z,13.4
2017-06-13T01:13:38.988Z,13.28
2017-06-13T01:14:07.209Z,13.44
2017-06-13T01:14:35.437Z,13.48
2017-06-13T01:15:03.737Z,13.35
2017-06-13T01:15:31.792Z,13.32
2017-06-13T01:16:00.009Z,13.39
2017-06-13T01:16:28.226Z,13.4
2017-06-13T01:16:56.358Z,13.36
2017-06-13T01:17:24.686Z,13.31
2017-06-13T01:17:52.836Z,13.32
2017-06-13T01:18:21.032Z,13.36
2017-06-13T01:18:49.265Z,13.29
2017-06-13T01:19:17.484Z,13.27
2017-06-13T01:19:45.691Z,13.35
2017-06-13T01:20:13.904Z,13.25
2017-06-13T01:20:42.094Z,13.28
2017-06-13T01:21:10.111Z,13.19
2017-06-13T01:21:38.133Z,13.28
2017-06-13T01:22:06.284Z,13.19
2017-06-13T01:22:34.681Z,13.21
2017-06-13T01:23:02.910Z,13.17
2017-06-13T01:23:31.003Z,13.14
2017-06-13T01:23:59.294Z,13.09
2017-06-13T01:24:27.473Z,13.07
2017-06-13T01:24:55.765Z,13.09
2017-06-13T01:25:23.731Z,13.06
2017-06-13T01:25:51.978Z,13.09
2017-06-13T01:26:20.074Z,13.09
2017-06-13T01:26:48.228Z,13.01
2017-06-13T01:27:16.251Z,12.96
2017-06-13T01:27:44.608Z,12.89
2017-06-13T01:28:12.754Z,12.98
2017-06-13T01:28:40.941Z,12.84
2017-06-13T01:29:09.133Z,12.89
2017-06-13T01:29:37.318Z,12.84
2017-06-13T01:30:05.550Z,12.91
2017-06-13T01:30:33.615Z,12.84
2017-06-13T01:31:01.698Z,12.86
2017-06-13T01:31:29.778Z,12.86
2017-06-13T01:31:57.790Z,12.77
2017-06-13T01:32:25.801Z,12.84
2017-06-13T01:32:54.145Z,12.8
2017-06-13T01:33:22.371Z,12.74
2017-06-13T01:33:50.644Z,12.83
2017-06-13T01:34:18.610Z,12.77
2017-06-13T01:34:46.882Z,12.74
2017-06-13T01:35:15.047Z,12.76
2017-06-13T01:35:43.237Z,12.83
2017-06-13T01:36:11.117Z,12.77
2017-06-13T01:36:39.360Z,12.76
2017-06-13T01:37:07.639Z,12.84
2017-06-13T01:37:35.616Z,12.86
2017-06-13T01:38:03.876Z,12.86
2017-06-13T01:38:32.067Z,12.86
2017-06-13T01:39:00.283Z,12.86
2017-06-13T01:39:28.444Z,12.86
2017-06-13T01:39:56.489Z,12.88
2017-06-13T01:40:24.506Z,12.91
2017-06-13T01:40:52.659Z,12.88
2017-06-13T01:41:20.883Z,12.95
2017-06-13T01:41:49.060Z,12.83
2017-06-13T01:42:17.190Z,12.95
2017-06-13T01:42:45.431Z,12.94
2017-06-13T01:43:13.462Z,12.88
2017-06-13T01:43:41.705Z,12.98
2017-06-13T01:44:09.749Z,12.98
2017-06-13T01:44:37.957Z,12.98
2017-06-13T01:45:06.215Z,12.92
2017-06-13T01:45:34.497Z,12.98
2017-06-13T01:46:02.505Z,12.91
2017-06-13T01:46:30.628Z,12.95
2017-06-13T01:46:58.748Z,12.98
2017-06-13T01:47:26.895Z,12.99
2017-06-13T01:47:55.243Z,12.88
2017-06-13T01:48:23.331Z,12.98
2017-06-13T01:48:51.519Z,12.94
2017-06-13T01:49:19.720Z,12.95
2017-06-13T01:49:47.866Z,12.86
2017-06-13T01:50:16.074Z,12.86
2017-06-13T01:50:44.365Z,12.86
2017-06-13T01:51:12.502Z,12.83
2017-06-13T01:51:40.719Z,12.84
2017-06-13T01:52:08.864Z,12.89
2017-06-13T01:52:36.846Z,12.95
2017-06-13T01:53:05.255Z,12.92
2017-06-13T01:53:33.465Z,13.02
2017-06-13T01:54:01.639Z,12.86
2017-06-13T01:54:29.875Z,12.91
2017-06-13T01:54:58.054Z,12.96
2017-06-13T01:55:26.214Z,12.91
2017-06-13T01:55:54.306Z,12.96
2017-06-13T01:56:22.497Z,12.99
2017-06-13T01:56:50.638Z,12.95
2017-06-13T01:57:18.782Z,12.96
2017-06-13T01:57:46.975Z,12.98
2017-06-13T01:58:15.402Z,13.02
2017-06-13T01:58:43.650Z,12.95
2017-06-13T01:59:11.797Z,12.96
2017-06-13T01:59:39.906Z,12.98
2017-06-13T02:00:08.088Z,13.02
2017-06-13T02:00:36.257Z,12.99
2017-06-13T02:01:04.447Z,13.07
2017-06-13T02:01:32.634Z,13.03
2017-06-13T02:02:00.923Z,13.1
2017-06-13T02:02:29.181Z,13.03
2017-06-13T02:02:57.355Z,12.92
2017-06-13T02:03:25.795Z,13.01
2017-06-13T02:03:54.016Z,12.95
2017-06-13T02:04:22.152Z,12.95
2017-06-13T02:04:50.443Z,13.01
2017-06-13T02:05:18.475Z,12.95
2017-06-13T02:05:46.700Z,12.96
2017-06-13T02:06:14.861Z,13.07
2017-06-13T02:06:42.789Z,13.01
2017-06-13T02:07:10.918Z,12.99
2017-06-13T02:07:39.200Z,12.99
2017-06-13T02:08:07.740Z,13.06
2017-06-13T02:08:36.016Z,12.98
2017-06-13T02:09:04.250Z,12.94
2017-06-13T02:09:32.388Z,12.94
2017-06-13T02:10:00.566Z,12.94
2017-06-13T02:10:28.785Z,12.95
2017-06-13T02:10:57.045Z,12.95
2017-06-13T02:11:25.126Z,12.94
2017-06-13T02:11:53.337Z,12.98
2017-06-13T02:12:21.573Z,12.96
2017-06-13T02:12:49.830Z,12.98
2017-06-13T02:13:18.063Z,12.98
2017-06-13T02:13:46.138Z,13.06
2017-06-13T02:14:14.212Z,13.09
2017-06-13T02:14:42.405Z,13.03
2017-06-13T02:15:10.588Z,13.1
2017-06-13T02:15:38.863Z,13.14
2017-06-13T02:16:07.064Z,13.16
2017-06-13T02:16:35.332Z,13.19
2017-06-13T02:17:03.605Z,13.16
2017-06-13T02:17:31.832Z,13.24
2017-06-13T02:17:59.886Z,13.27
2017-06-13T02:18:28.161Z,13.25
2017-06-13T02:18:56.300Z,13.17
2017-06-13T02:19:24.574Z,13.24
2017-06-13T02:19:52.793Z,13.17
2017-06-13T02:20:21.012Z,13.21
2017-06-13T02:20:49.123Z,13.16
2017-06-13T02:21:17.367Z,13.17
2017-06-13T02:21:45.463Z,13.21
2017-06-13T02:22:13.636Z,13.21
2017-06-13T02:22:41.912Z,13.19
2017-06-13T02:23:10.187Z,13.17
2017-06-13T02:23:38.587Z,13.21
2017-06-13T02:24:06.822Z,13.2
2017-06-13T02:24:35.078Z,13.17
2017-06-13T02:25:03.452Z,13.17
2017-06-13T02:25:31.725Z,13.19
2017-06-13T02:25:59.943Z,13.16
2017-06-13T02:26:28.297Z,13.13
2017-06-13T02:26:56.587Z,13.13
2017-06-13T02:27:24.912Z,13.1
2017-06-13T02:27:53.139Z,13.16
2017-06-13T02:28:21.526Z,13.09
2017-06-13T02:28:49.912Z,13.09
2017-06-13T02:29:18.010Z,13.07
2017-06-13T02:29:46.059Z,13.09
2017-06-13T02:30:14.223Z,13.1
2017-06-13T02:30:42.425Z,13.07
2017-06-13T02:31:10.510Z,13.06
2017-06-13T02:31:38.686Z,13.07
2017-06-13T02:32:06.913Z,13.01
2017-06-13T02:32:35.066Z,13.13
2017-06-13T02:33:03.348Z,13.09
2017-06-13T02:33:31.644Z,13.07
2017-06-13T02:33:59.766Z,13.11
2017-06-13T02:34:27.908Z,13.13
2017-06-13T02:34:56.128Z,13.09
2017-06-13T02:35:24.364Z,13.06
2017-06-13T02:35:52.437Z,13.07
2017-06-13T02:36:20.688Z,13.07
2017-06-13T02:36:48.772Z,12.96
2017-06-13T02:37:16.954Z,12.99
2017-06-13T02:37:44.960Z,12.99
2017-06-13T02:38:13.219Z,12.96
2017-06-13T02:38:41.579Z,12.94
2017-06-13T02:39:09.717Z,13.01
2017-06-13T02:39:37.971Z,12.96
2017-06-13T02:40:06.102Z,13.03
2017-06-13T02:40:34.391Z,12.99
2017-06-13T02:41:02.675Z,12.96
2017-06-13T02:41:30.718Z,12.96
2017-06-13T02:41:58.912Z,12.99
2017-06-13T02:42:27.049Z,12.94
2017-06-13T02:42:55.345Z,12.94
2017-06-13T02:43:23.570Z,12.99
2017-06-13T02:43:51.953Z,12.98
2017-06-13T02:44:20.009Z,13.02
2017-06-13T02:44:48.178Z,12.98
2017-06-13T02:45:16.452Z,13.11
2017-06-13T02:45:44.560Z,13.11
2017-06-13T02:46:12.632Z,13.1
2017-06-13T02:46:40.939Z,13.13
2017-06-13T02:47:08.962Z,13.11
2017-06-13T02:47:37.176Z,13.06
2017-06-13T02:48:05.468Z,13.1
2017-06-13T02:48:33.519Z,13.1
2017-06-13T02:49:01.965Z,13.09
2017-06-13T02:49:30.188Z,13.02
2017-06-13T02:49:58.441Z,13.02
2017-06-13T02:50:26.593Z,13.09
2017-06-13T02:50:54.812Z,13.07
2017-06-13T02:51:22.656Z,13.07
2017-06-13T02:51:50.871Z,13.09
2017-06-13T02:52:19.108Z,13.09
2017-06-13T02:52:47.160Z,13.03
2017-06-13T02:53:15.190Z,13.03
2017-06-13T02:53:43.606Z,13.03
2017-06-13T02:54:12.050Z,13.11
2017-06-13T02:54:40.132Z,13.14
2017-06-13T02:55:08.383Z,13.03
2017-06-13T02:55:36.600Z,13.09
2017-06-13T02:56:04.957Z,13.01
2017-06-13T02:56:33.263Z,12.99
2017-06-13T02:57:01.465Z,12.95
2017-06-13T02:57:29.752Z,13.01
2017-06-13T02:57:58.021Z,13.02
2017-06-13T02:58:26.284Z,13.01
2017-06-13T02:58:54.769Z,12.92
2017-06-13T02:59:22.902Z,12.91
2017-06-13T02:59:51.051Z,12.99
2017-06-13T03:00:19.339Z,12.92
2017-06-13T03:00:47.537Z,12.99
2017-06-13T03:01:15.739Z,12.96
2017-06-13T03:01:43.859Z,13.02
2017-06-13T03:02:12.123Z,12.92
2017-06-13T03:02:40.392Z,12.83
2017-06-13T03:03:08.531Z,12.89
2017-06-13T03:03:36.665Z,12.86
2017-06-13T03:04:05.051Z,12.83
2017-06-13T03:04:33.195Z,12.8
2017-06-13T03:05:01.433Z,12.88
2017-06-13T03:05:29.783Z,12.89
2017-06-13T03:05:57.988Z,12.84
2017-06-13T03:06:26.226Z,12.86
2017-06-13T03:06:54.278Z,12.86
2017-06-13T03:07:22.233Z,12.99
2017-06-13T03:07:50.372Z,12.88
2017-06-13T03:08:18.639Z,12.83
2017-06-13T03:08:46.882Z,12.78
2017-06-13T03:09:15.146Z,12.78
2017-06-13T03:09:43.316Z,12.73
2017-06-13T03:10:11.587Z,12.7
2017-06-13T03:10:39.828Z,12.63
2017-06-13T03:11:07.986Z,12.62
2017-06-13T03:11:36.170Z,12.55
2017-06-13T03:12:04.295Z,12.62
2017-06-13T03:12:32.501Z,12.55
2017-06-13T03:13:00.769Z,12.53
2017-06-13T03:13:28.941Z,12.51
2017-06-13T03:13:57.186Z,12.51
2017-06-13T03:14:25.445Z,12.52
2017-06-13T03:14:53.573Z,12.48
2017-06-13T03:15:21.807Z,12.51
2017-06-13T03:15:49.953Z,12.52
2017-06-13T03:16:18.227Z,12.45
2017-06-13T03:16:46.476Z,12.53
2017-06-13T03:17:14.536Z,12.55
2017-06-13T03:17:42.712Z,12.52
2017-06-13T03:18:10.858Z,12.51
2017-06-13T03:18:38.825Z,12.52
2017-06-13T03:19:07.194Z,12.52
2017-06-13T03:19:35.337Z,12.52
2017-06-13T03:20:03.545Z,12.47
2017-06-13T03:20:31.761Z,12.47
2017-06-13T03:20:59.853Z,12.48
2017-06-13T03:21:28.165Z,12.44
2017-06-13T03:21:56.222Z,12.53
2017-06-13T03:22:24.379Z,12.48
2017-06-13T03:22:52.675Z,12.45
2017-06-13T03:23:20.918Z,12.56
2017-06-13T03:23:49.232Z,12.56
2017-06-13T03:24:17.352Z,12.51
2017-06-13T03:24:45.621Z,12.48
2017-06-13T03:25:13.898Z,12.48
2017-06-13T03:25:42.016Z,12.45
2017-06-13T03:26:10.129Z,12.47
2017-06-13T03:26:38.371Z,12.51
2017-06-13T03:27:06.538Z,12.45
2017-06-13T03:27:34.693Z,12.44
2017-06-13T03:28:02.927Z,12.51
2017-06-13T03:28:31.038Z,12.55
2017-06-13T03:28:59.299Z,12.47
2017-06-13T03:29:27.669Z,12.65
2017-06-13T03:29:55.945Z,12.48
2017-06-13T03:30:24.163Z,12.48
2017-06-13T03:30:52.377Z,12.45
2017-06-13T03:31:20.662Z,12.47
2017-06-13T03:31:48.732Z,12.51
2017-06-13T03:32:16.845Z,12.53
2017-06-13T03:32:44.927Z,12.62
2017-06-13T03:33:13.193Z,12.52
2017-06-13T03:33:41.485Z,12.48
2017-06-13T03:34:09.736Z,12.52
2017-06-13T03:34:38.129Z,12.52
2017-06-13T03:35:06.353Z,12.52
2017-06-13T03:35:34.520Z,12.52
2017-06-13T03:36:02.681Z,12.48
2017-06-13T03:36:30.800Z,12.52
2017-06-13T03:36:59.000Z,12.52
2017-06-13T03:37:27.201Z,12.61
2017-06-13T03:37:55.332Z,12.53
2017-06-13T03:38:23.595Z,12.59
2017-06-13T03:38:51.756Z,12.55
2017-06-13T03:39:20.027Z,12.56
2017-06-13T03:39:48.382Z,12.61
2017-06-13T03:40:16.615Z,12.59
2017-06-13T03:40:44.728Z,12.65
2017-06-13T03:41:12.960Z,12.59
2017-06-13T03:41:41.134Z,12.58
2017-06-13T03:42:09.267Z,12.62
2017-06-13T03:42:37.426Z,12.52
2017-06-13T03:43:05.594Z,12.58
2017-06-13T03:43:33.872Z,12.59
2017-06-13T03:44:02.139Z,12.59
2017-06-13T03:44:30.525Z,12.58
2017-06-13T03:44:58.722Z,12.55
2017-06-13T03:45:26.938Z,12.52
2017-06-13T03:45:55.092Z,12.51
2017-06-13T03:46:23.120Z,12.48
2017-06-13T03:46:51.252Z,12.44
2017-06-13T03:47:19.515Z,12.52
2017-06-13T03:47:47.633Z,12.53
2017-06-13T03:48:15.775Z,12.47
2017-06-13T03:48:43.997Z,12.51
2017-06-13T03:49:12.275Z,12.53
2017-06-13T03:49:40.511Z,12.58
2017-06-13T03:50:08.667Z,12.45
2017-06-13T03:50:36.787Z,12.53
2017-06-13T03:51:04.886Z,12.51
2017-06-13T03:51:33.152Z,12.55
2017-06-13T03:52:01.393Z,12.56
2017-06-13T03:52:29.522Z,12.59
2017-06-13T03:52:57.737Z,12.56
2017-06-13T03:53:25.908Z,12.59
2017-06-13T03:53:54.175Z,12.62
2017-06-13T03:54:22.489Z,12.56
2017-06-13T03:54:50.856Z,12.61
2017-06-13T03:55:19.083Z,12.53
2017-06-13T03:55:47.304Z,12.59
2017-06-13T03:56:15.462Z,12.62
2017-06-13T03:56:43.518Z,12.62
2017-06-13T03:57:11.772Z,12.58
2017-06-13T03:57:39.859Z,12.62
2017-06-13T03:58:07.935Z,12.58
2017-06-13T03:58:36.016Z,12.58
2017-06-13T03:59:04.067Z,12.59
2017-06-13T03:59:32.347Z,12.59
2017-06-13T04:00:00.748Z,12.61
2017-06-13T04:00:28.946Z,12.61
2017-06-13T04:00:56.796Z,12.61
2017-06-13T04:01:25.058Z,12.65
2017-06-13T04:01:53.252Z,12.66
2017-06-13T04:02:21.466Z,12.66
2017-06-13T04:02:49.691Z,12.63
2017-06-13T04:03:17.852Z,12.66
2017-06-13T04:03:46.016Z,12.73
2017-06-13T04:04:14.286Z,12.81
2017-06-13T04:04:42.443Z,12.77
2017-06-13T04:05:10.869Z,12.81
2017-06-13T04:05:39.177Z,12.86
2017-06-13T04:06:07.384Z,12.96
2017-06-13T04:06:35.523Z,12.95
2017-06-13T04:07:03.598Z,12.94
2017-06-13T04:07:31.759Z,12.88
2017-06-13T04:07:59.921Z,12.98
2017-06-13T04:08:27.975Z,12.86
2017-06-13T04:08:55.932Z,12.84
2017-06-13T04:09:24.190Z,12.91
2017-06-13T04:09:52.524Z,12.77
2017-06-13T04:10:20.783Z,12.84
2017-06-13T04:10:48.931Z,12.77
2017-06-13T04:11:16.895Z,12.77
2017-06-13T04:11:45.038Z,12.8
2017-06-13T04:12:13.298Z,12.81
2017-06-13T04:12:41.592Z,12.71
2017-06-13T04:13:09.770Z,12.73
2017-06-13T04:13:37.993Z,12.73
2017-06-13T04:14:06.257Z,12.62
2017-06-13T04:14:34.516Z,12.69
2017-06-13T04:15:03.077Z,12.66
2017-06-13T04:15:31.232Z,12.66
2017-06-13T04:15:59.397Z,12.66
2017-06-13T04:16:27.675Z,12.65
2017-06-13T04:16:55.998Z,12.69
2017-06-13T04:17:24.239Z,12.65
2017-06-13T04:17:52.288Z,12.63
2017-06-13T04:18:20.506Z,12.59
2017-06-13T04:18:48.667Z,12.65
2017-06-13T04:19:16.909Z,12.74
2017-06-13T04:19:45.142Z,12.62
2017-06-13T04:20:13.652Z,12.74
2017-06-13T04:20:41.811Z,12.74
2017-06-13T04:21:09.954Z,12.7
2017-06-13T04:21:38.121Z,12.74
2017-06-13T04:22:06.256Z,12.69
2017-06-13T04:22:34.256Z,12.7
2017-06-13T04:23:02.477Z,12.77
2017-06-13T04:23:30.769Z,12.78
2017-06-13T04:23:59.024Z,12.76
2017-06-13T04:24:27.178Z,12.86
2017-06-13T04:24:55.308Z,12.84
2017-06-13T04:25:23.575Z,12.88
2017-06-13T04:25:51.611Z,12.96
2017-06-13T04:26:19.745Z,12.96
2017-06-13T04:26:47.866Z,12.91
2017-06-13T04:27:16.117Z,12.96
2017-06-13T04:27:44.333Z,12.96
2017-06-13T04:28:12.641Z,13.03
2017-06-13T04:28:40.647Z,13.11
2017-06-13T04:29:08.779Z,13.07
2017-06-13T04:29:36.856Z,13.11
2017-06-13T04:30:05.125Z,13.11
2017-06-13T04:30:33.480Z,13.19
2017-06-13T04:31:01.721Z,13.2
2017-06-13T04:31:29.909Z,13.25
2017-06-13T04:31:57.867Z,13.28
2017-06-13T04:32:26.026Z,13.21
2017-06-13T04:32:54.093Z,13.27
2017-06-13T04:33:22.283Z,13.25
2017-06-13T04:33:50.322Z,13.21
2017-06-13T04:34:18.482Z,13.25
2017-06-13T04:34:46.728Z,13.25
2017-06-13T04:35:15.055Z,13.29
2017-06-13T04:35:43.291Z,13.36
2017-06-13T04:36:11.532Z,13.36
2017-06-13T04:36:39.565Z,13.36
2017-06-13T04:37:07.704Z,13.37
2017-06-13T04:37:35.784Z,13.36
2017-06-13T04:38:03.808Z,13.36
2017-06-13T04:38:31.777Z,13.4
2017-06-13T04:38:59.999Z,13.4
2017-06-13T04:39:28.193Z,13.36
2017-06-13T04:39:56.341Z,13.32
2017-06-13T04:40:24.438Z,13.45
2017-06-13T04:40:52.551Z,13.44
2017-06-13T04:41:20.589Z,13.39
2017-06-13T04:41:48.863Z,13.44
2017-06-13T04:42:16.982Z,13.47
2017-06-13T04:42:45.231Z,13.44
2017-06-13T04:43:13.419Z,13.51
2017-06-13T04:43:41.626Z,13.39
2017-06-13T04:44:09.761Z,13.39
2017-06-13T04:44:37.945Z,13.48
2017-06-13T04:45:06.098Z,13.4
2017-06-13T04:45:34.355Z,13.44
2017-06-13T04:46:02.593Z,13.54
2017-06-13T04:46:30.878Z,13.5
2017-06-13T04:46:59.055Z,13.51
2017-06-13T04:47:27.235Z,13.36
2017-06-13T04:47:55.508Z,13.4
2017-06-13T04:48:23.775Z,13.4
2017-06-13T04:48:51.931Z,13.42
2017-06-13T04:49:20.148Z,13.5
2017-06-13T04:49:48.332Z,13.48
2017-06-13T04:50:16.387Z,13.48
2017-06-13T04:50:44.864Z,13.42
2017-06-13T04:51:13.066Z,13.45
2017-06-13T04:51:41.181Z,13.42
2017-06-13T04:52:09.479Z,13.37
2017-06-13T04:52:37.686Z,13.39
2017-06-13T04:53:05.764Z,13.48
2017-06-13T04:53:34.033Z,13.27
2017-06-13T04:54:02.134Z,13.44
2017-06-13T04:54:30.175Z,13.4
2017-06-13T04:54:58.315Z,13.47
2017-06-13T04:55:26.738Z,13.39
2017-06-13T04:55:55.032Z,13.39
2017-06-13T04:56:23.276Z,13.47
2017-06-13T04:56:51.330Z,13.45
2017-06-13T04:57:19.596Z,13.48
2017-06-13T04:57:47.868Z,13.45
2017-06-13T04:58:16.028Z,13.42
2017-06-13T04:58:43.967Z,13.44
2017-06-13T04:59:11.931Z,13.44
2017-06-13T04:59:39.882Z,13.5
2017-06-13T05:00:08.120Z,13.37
2017-06-13T05:00:36.348Z,13.39
2017-06-13T05:01:04.614Z,13.44
2017-06-13T05:01:32.680Z,13.55
2017-06-13T05:02:00.764Z,13.45
2017-06-13T05:02:28.906Z,13.44
2017-06-13T05:02:57.096Z,13.42
2017-06-13T05:03:25.101Z,13.55
2017-06-13T05:03:53.362Z,13.37
2017-06-13T05:04:21.628Z,13.45
2017-06-13T05:04:49.885Z,13.58
2017-06-13T05:05:18.033Z,13.39
2017-06-13T05:05:46.411Z,13.37
2017-06-13T05:06:14.601Z,13.48
2017-06-13T05:06:42.785Z,13.53
2017-06-13T05:07:11.020Z,13.48
2017-06-13T05:07:39.163Z,13.53
2017-06-13T05:08:07.311Z,13.48
2017-06-13T05:08:35.598Z,13.42
2017-06-13T05:09:03.866Z,13.45
2017-06-13T05:09:31.994Z,13.53
2017-06-13T05:10:00.250Z,13.5
2017-06-13T05:10:28.515Z,13.54
2017-06-13T05:10:56.753Z,13.47
2017-06-13T05:11:24.961Z,13.51
2017-06-13T05:11:52.994Z,13.51
2017-06-13T05:12:21.214Z,13.5
2017-06-13T05:12:49.262Z,13.45
2017-06-13T05:13:17.445Z,13.54
2017-06-13T05:13:45.606Z,13.51
2017-06-13T05:14:13.753Z,13.57
2017-06-13T05:14:41.995Z,13.6
2017-06-13T05:15:10.140Z,13.58
2017-06-13T05:15:38.313Z,13.6
2017-06-13T05:16:06.586Z,13.6
2017-06-13T05:16:34.723Z,13.6
2017-06-13T05:17:02.940Z,13.68
2017-06-13T05:17:31.210Z,13.6
2017-06-13T05:17:59.291Z,13.69
2017-06-13T05:18:27.402Z,13.63
2017-06-13T05:18:55.578Z,13.62
2017-06-13T05:19:23.766Z,13.58
2017-06-13T05:19:52.075Z,13.68
2017-06-13T05:20:20.230Z,13.66
2017-06-13T05:20:48.488Z,13.58
2017-06-13T05:21:16.770Z,13.68
2017-06-13T05:21:44.960Z,13.63
2017-06-13T05:22:13.246Z,13.62
2017-06-13T05:22:41.188Z,13.69
2017-06-13T05:23:09.355Z,13.63
2017-06-13T05:23:37.512Z,13.65
2017-06-13T05:24:05.594Z,13.58
2017-06-13T05:24:33.845Z,13.62
2017-06-13T05:25:02.023Z,13.65
2017-06-13T05:25:30.250Z,13.66
2017-06-13T05:25:58.591Z,13.7
2017-06-13T05:26:26.857Z,13.58
2017-06-13T05:26:55.173Z,13.68
2017-06-13T05:27:23.359Z,13.62
2017-06-13T05:27:51.482Z,13.65
2017-06-13T05:28:19.653Z,13.68
2017-06-13T05:28:47.833Z,13.63
2017-06-13T05:29:15.955Z,13.6
2017-06-13T05:29:44.102Z,13.68
2017-06-13T05:30:12.348Z,13.62
2017-06-13T05:30:40.526Z,13.57
2017-06-13T05:31:08.856Z,13.51
2017-06-13T05:31:36.914Z,13.51
2017-06-13T05:32:05.147Z,13.53
2017-06-13T05:32:33.296Z,13.47
2017-06-13T05:33:01.446Z,13.5
2017-06-13T05:33:29.489Z,13.5
2017-06-13T05:33:57.636Z,13.51
2017-06-13T05:34:25.928Z,13.6
2017-06-13T05:34:54.175Z,13.53
2017-06-13T05:35:22.254Z,13.53
2017-06-13T05:35:50.494Z,13.62
2017-06-13T05:36:18.942Z,13.6
2017-06-13T05:36:46.923Z,13.6
2017-06-13T05:37:15.108Z,13.62
2017-06-13T05:37:43.408Z,13.58
2017-06-13T05:38:11.549Z,13.6
2017-06-13T05:38:39.818Z,13.6
2017-06-13T05:39:08.034Z,13.57
2017-06-13T05:39:36.120Z,13.62
2017-06-13T05:40:04.282Z,13.68
2017-06-13T05:40:32.448Z,13.65
2017-06-13T05:41:00.595Z,13.69
2017-06-13T05:41:28.836Z,13.7
2017-06-13T05:41:56.933Z,13.66
2017-06-13T05:42:25.188Z,13.75
2017-06-13T05:42:53.353Z,13.7
2017-06-13T05:43:21.340Z,13.7
2017-06-13T05:43:49.402Z,13.75
2017-06-13T05:44:17.598Z,13.73
2017-06-13T05:44:45.665Z,13.7
2017-06-13T05:45:13.883Z,13.75
2017-06-13T05:45:41.968Z,13.73
2017-06-13T05:46:10.257Z,13.72
2017-06-13T05:46:38.588Z,13.73
2017-06-13T05:47:06.644Z,13.73
2017-06-13T05:47:34.917Z,13.76
2017-06-13T05:48:03.095Z,13.75
2017-06-13T05:48:31.332Z,13.75
2017-06-13T05:48:59.526Z,13.78
2017-06-13T05:49:27.702Z,13.76
2017-06-13T05:49:55.966Z,13.79
2017-06-13T05:50:24.184Z,13.73
2017-06-13T05:50:52.423Z,13.7
2017-06-13T05:51:20.757Z,13.7
2017-06-13T05:51:49.035Z,13.69
2017-06-13T05:52:17.265Z,13.7
2017-06-13T05:52:45.555Z,13.75
2017-06-13T05:53:13.711Z,13.78
2017-06-13T05:53:41.832Z,13.7
2017-06-13T05:54:09.933Z,13.73
2017-06-13T05:54:38.238Z,13.75
2017-06-13T05:55:06.338Z,13.73
2017-06-13T05:55:34.472Z,13.65
2017-06-13T05:56:02.749Z,13.72
2017-06-13T05:56:31.047Z,13.63
2017-06-13T05:56:59.092Z,13.72
2017-06-13T05:57:27.287Z,13.66
2017-06-13T05:57:55.530Z,13.63
2017-06-13T05:58:23.739Z,13.62
2017-06-13T05:58:51.996Z,13.65
2017-06-13T05:59:20.143Z,13.62
2017-06-13T05:59:48.416Z,13.63
2017-06-13T06:00:16.467Z,13.62
2017-06-13T06:00:44.728Z,13.65
2017-06-13T06:01:12.856Z,13.66
2017-06-13T06:01:41.207Z,13.66
2017-06-13T06:02:09.326Z,13.62
2017-06-13T06:02:37.529Z,13.7
2017-06-13T06:03:05.527Z,13.68
2017-06-13T06:03:33.762Z,13.63
2017-06-13T06:04:01.863Z,13.73